Time;durP1;ratioP1;P1;durP2;ratioP2;P2;SDS_P1;SDS_P2;PMS_P1;PMS_P2;Temp;Humidity;BMP_temperature;BMP_pressure;BME280_temperature;BME280_humidity;BME280_pressure;Samples;Min_cycle;Max_cycle;Signal;HPM_P1;HPM_P2
2022/05/04 00:03:18;;;;;;;13.53;4.40;;;;;;;9.08;32.36;100741.06;10089306;29;20261;-81
2022/05/04 00:08:20;;;;;;;6.17;4.00;;;;;;;9.39;31.83;100734.53;10089315;29;20266;-82
2022/05/04 00:13:22;;;;;;;9.23;4.80;;;;;;;8.86;32.35;100744.53;10088954;29;20300;-82
2022/05/04 00:18:24;;;;;;;7.43;4.03;;;;;;;9.17;32.09;100740.06;10088414;29;20726;-82
2022/05/04 00:23:27;;;;;;;8.37;4.10;;;;;;;9.24;31.85;100743.91;10105190;29;20257;-83
2022/05/04 00:28:29;;;;;;;8.77;4.50;;;;;;;8.98;32.39;100743.63;10088039;29;20202;-82
2022/05/04 00:33:31;;;;;;;8.07;4.40;;;;;;;8.76;32.48;100735.72;10104621;29;20270;-82
2022/05/04 00:38:33;;;;;;;8.67;4.40;;;;;;;9.00;32.60;100732.72;10088362;29;20262;-82
2022/05/04 00:43:35;;;;;;;6.43;4.10;;;;;;;8.70;32.47;100743.66;10087747;29;20607;-82
2022/05/04 00:48:37;;;;;;;10.27;4.20;;;;;;;8.45;32.98;100739.28;10104330;29;20254;-81
2022/05/04 00:53:41;;;;;;;10.70;4.43;;;;;;;8.40;33.15;100743.22;10091172;29;20705;-81
2022/05/04 00:58:55;;;;;;;6.47;3.90;;;;;;;8.42;32.84;100738.00;10011219;29;20658;-82
2022/05/04 01:03:58;;;;;;;11.53;4.80;;;;;;;8.70;32.66;100733.09;10026204;29;20481;-82
2022/05/04 01:09:00;;;;;;;6.37;4.10;;;;;;;7.81;34.00;100737.34;10010759;29;20259;-81
2022/05/04 01:14:04;;;;;;;7.07;4.30;;;;;;;7.61;33.81;100741.97;10025551;29;20207;-81
2022/05/04 01:19:07;;;;;;;10.53;4.20;;;;;;;8.38;32.54;100734.25;9995310;29;20231;-86
2022/05/04 01:24:10;;;;;;;7.30;4.13;;;;;;;7.76;33.50;100734.75;10025452;29;20188;-82
2022/05/04 01:29:14;;;;;;;5.43;4.10;;;;;;;8.23;33.00;100737.84;10025261;29;20268;-82
2022/05/04 01:34:17;;;;;;;7.20;4.17;;;;;;;7.97;33.04;100736.25;10024887;29;20207;-81
2022/05/04 01:39:19;;;;;;;7.17;4.33;;;;;;;8.32;32.40;100732.84;10024445;29;20513;-83
2022/05/04 01:44:21;;;;;;;8.67;4.63;;;;;;;8.43;32.57;100733.97;10024233;29;20208;-82
2022/05/04 01:49:23;;;;;;;9.73;4.43;;;;;;;8.26;32.23;100737.09;10027816;29;20250;-82
2022/05/04 01:54:26;;;;;;;7.67;4.40;;;;;;;7.97;32.97;100733.41;10033254;29;20207;-82
2022/05/04 01:59:28;;;;;;;6.73;3.60;;;;;;;7.77;33.21;100731.56;10023102;29;20529;-83
2022/05/04 02:04:30;;;;;;;5.13;4.33;;;;;;;7.89;32.78;100739.22;10023961;29;20260;-82
2022/05/04 02:09:32;;;;;;;9.27;4.50;;;;;;;8.01;32.77;100731.50;10008759;29;20215;-82
2022/05/04 02:14:35;;;;;;;8.03;4.30;;;;;;;7.55;33.41;100729.22;10023426;29;20207;-83
2022/05/04 02:19:37;;;;;;;6.57;4.10;;;;;;;7.61;33.28;100739.13;10007861;29;20275;-81
2022/05/04 02:24:39;;;;;;;6.27;3.93;;;;;;;8.05;32.35;100725.94;10008187;29;20247;-82
2022/05/04 02:29:41;;;;;;;10.17;4.70;;;;;;;8.04;32.60;100724.28;10023220;29;20260;-83
2022/05/04 02:40:04;;;;;;;9.80;4.53;;;;;;;7.99;32.69;100719.69;10024155;29;20276;-82
2022/05/04 02:45:07;;;;;;;11.97;4.57;;;;;;;7.87;32.80;100724.56;10023964;29;20634;-82
2022/05/04 02:50:09;;;;;;;7.80;4.30;;;;;;;7.08;33.93;100721.19;10022870;29;20242;-82
2022/05/04 02:55:11;;;;;;;9.87;4.17;;;;;;;7.44;33.31;100719.56;10023526;29;20199;-82
2022/05/04 03:00:14;;;;;;;8.17;4.73;;;;;;;6.93;34.15;100714.19;10007713;29;20196;-86
2022/05/04 03:05:17;;;;;;;8.27;5.03;;;;;;;7.00;34.11;100724.94;10058842;29;20716;-82
2022/05/04 03:10:19;;;;;;;7.50;5.00;;;;;;;7.62;32.89;100727.44;10067917;29;20277;-81
2022/05/04 03:15:22;;;;;;;8.70;4.93;;;;;;;7.40;33.51;100722.25;10091027;29;20598;-82
2022/05/04 03:20:24;;;;;;;10.40;5.33;;;;;;;6.57;34.85;100722.63;10090236;29;20501;-82
2022/05/04 03:25:26;;;;;;;7.97;4.70;;;;;;;7.29;33.61;100721.91;10107691;29;20592;-82
2022/05/04 03:30:28;;;;;;;8.60;5.57;;;;;;;6.34;34.99;100736.31;10088593;29;20230;-82
2022/05/04 03:35:30;;;;;;;12.73;6.53;;;;;;;7.15;33.68;100714.91;10097905;29;20210;-81
2022/05/04 03:40:33;;;;;;;11.17;5.20;;;;;;;7.55;32.92;100715.88;10106809;29;20190;-81
2022/05/04 03:45:35;;;;;;;7.27;5.07;;;;;;;6.55;34.23;100714.47;10090228;29;20214;-81
2022/05/04 03:50:37;;;;;;;7.07;5.30;;;;;;;7.23;33.39;100713.94;10090194;29;20278;-82
2022/05/04 03:55:39;;;;;;;9.30;4.87;;;;;;;7.06;33.68;100709.34;10056892;29;20251;-81
2022/05/04 04:00:43;;;;;;;9.43;4.83;;;;;;;6.99;33.60;100711.94;10061220;29;20588;-82
2022/05/04 04:05:45;;;;;;;10.47;5.53;;;;;;;6.99;33.73;100711.09;10051218;29;20255;-82
2022/05/04 04:10:48;;;;;;;10.03;4.77;;;;;;;7.16;33.27;100708.88;10050088;29;20533;-82
2022/05/04 04:15:51;;;;;;;10.10;5.57;;;;;;;6.85;33.85;100708.59;10036413;29;20206;-87
2022/05/04 04:26:15;;;;;;;8.00;4.80;;;;;;;7.23;33.51;100705.44;10061730;29;20233;-84
2022/05/04 04:31:18;;;;;;;13.83;5.70;;;;;;;7.17;33.25;100723.91;10064680;29;20230;-85
2022/05/04 04:36:20;;;;;;;8.53;5.50;;;;;;;6.91;33.56;100732.72;10047687;29;20199;-82
2022/05/04 04:41:22;;;;;;;15.10;6.10;;;;;;;6.31;34.45;100731.34;10048320;29;20257;-84
2022/05/04 04:46:25;;;;;;;8.90;5.33;;;;;;;7.27;33.16;100738.47;10047230;29;20215;-83
2022/05/04 04:51:27;;;;;;;10.30;5.43;;;;;;;6.55;34.14;100742.81;10065779;29;20263;-85
2022/05/04 04:56:29;;;;;;;8.90;5.83;;;;;;;7.18;33.11;100743.41;10037821;29;20266;-83
2022/05/04 05:01:31;;;;;;;17.23;6.40;;;;;;;6.82;33.78;100737.69;10050374;29;20198;-83
2022/05/04 05:06:33;;;;;;;11.13;5.60;;;;;;;7.14;33.14;100742.44;10047812;29;20202;-86
2022/05/04 05:11:35;;;;;;;15.37;5.90;;;;;;;6.64;33.74;100742.72;10064745;29;20271;-82
2022/05/04 05:16:38;;;;;;;11.83;5.27;;;;;;;7.59;32.54;100738.69;10040008;29;20683;-84
2022/05/04 05:21:41;;;;;;;15.93;5.97;;;;;;;6.08;35.08;100742.22;10037783;29;20234;-85
2022/05/04 05:26:43;;;;;;;13.30;6.17;;;;;;;6.88;33.84;100739.09;10038010;29;20194;-83
2022/05/04 05:31:45;;;;;;;12.23;5.50;;;;;;;6.37;34.64;100746.97;10087155;29;20656;-83
2022/05/04 05:36:48;;;;;;;15.27;6.47;;;;;;;6.07;34.98;100748.22;10045734;29;20247;-84
2022/05/04 05:41:50;;;;;;;22.63;6.00;;;;;;;7.08;33.10;100745.88;10045687;29;20679;-84
2022/05/04 05:46:52;;;;;;;15.90;6.60;;;;;;;6.47;34.47;100757.84;10044897;29;20246;-84
2022/05/04 05:51:55;;;;;;;12.43;6.37;;;;;;;6.69;33.95;100744.50;10062010;29;20684;-84
2022/05/04 05:56:57;;;;;;;11.03;5.87;;;;;;;6.59;33.71;100743.75;10085280;29;20206;-84
2022/05/04 06:01:59;;;;;;;11.30;6.13;;;;;;;6.77;33.68;100749.25;10069670;29;20543;-84
2022/05/04 06:07:01;;;;;;;13.30;6.23;;;;;;;6.55;34.15;100737.16;10065390;29;20336;-86
2022/05/04 06:12:03;;;;;;;15.40;6.67;;;;;;;6.84;33.70;100736.13;10069806;29;20214;-84
2022/05/04 06:17:06;;;;;;;13.87;6.73;;;;;;;6.22;34.92;100733.44;10067647;29;20201;-84
2022/05/04 06:22:08;;;;;;;17.33;6.50;;;;;;;7.34;33.32;100737.06;10054311;29;20296;-84
2022/05/04 06:27:10;;;;;;;14.10;6.27;;;;;;;7.77;32.35;100731.56;10055641;29;20250;-86
2022/05/04 06:37:33;;;;;;;15.03;7.00;;;;;;;6.49;34.49;100747.03;10064667;29;20197;-84
2022/05/04 06:42:36;;;;;;;16.73;6.63;;;;;;;7.69;32.58;100740.22;10062520;29;20205;-85
2022/05/04 06:47:39;;;;;;;12.90;6.53;;;;;;;7.13;34.05;100739.97;10055808;29;20227;-85
2022/05/04 06:52:41;;;;;;;9.10;5.70;;;;;;;7.33;32.70;100739.06;10048518;29;20505;-85
2022/05/04 06:57:43;;;;;;;12.80;7.27;;;;;;;7.46;33.59;100739.88;10065596;29;20508;-85
2022/05/04 07:02:45;;;;;;;16.57;6.87;;;;;;;6.91;34.28;100755.44;10054376;29;20222;-82
2022/05/04 07:07:48;;;;;;;11.03;6.20;;;;;;;7.90;32.84;100752.22;10050240;29;20197;-82
2022/05/04 07:12:50;;;;;;;16.13;7.50;;;;;;;8.24;32.37;100753.72;10056746;29;20250;-87
2022/05/04 07:17:52;;;;;;;14.40;7.17;;;;;;;8.51;31.79;100755.75;10073340;29;20218;-83
2022/05/04 07:22:55;;;;;;;9.73;6.33;;;;;;;8.97;31.19;100739.13;10041794;29;20533;-84
2022/05/04 07:27:58;;;;;;;13.20;7.40;;;;;;;8.33;31.99;100752.38;10021400;29;20211;-83
2022/05/04 07:33:00;;;;;;;16.63;7.07;;;;;;;8.41;32.66;100753.41;10020060;29;20251;-85
2022/05/04 07:38:03;;;;;;;15.67;6.77;;;;;;;9.49;31.23;100743.75;10008544;29;20278;-83
2022/05/04 07:43:05;;;;;;;15.83;7.30;;;;;;;8.88;31.59;100742.16;10044851;29;20231;-85
2022/05/04 07:48:07;;;;;;;17.67;8.43;;;;;;;8.96;31.35;100752.53;10036227;29;20198;-82
2022/05/04 07:53:09;;;;;;;15.60;8.10;;;;;;;10.05;30.04;100750.78;10044446;29;20319;-84
2022/05/04 07:58:12;;;;;;;12.97;7.57;;;;;;;9.02;31.29;100748.25;10051253;29;20202;-87
2022/05/04 08:08:35;;;;;;;12.80;7.83;;;;;;;10.03;30.94;100753.16;10055166;29;20672;-84
2022/05/04 08:13:37;;;;;;;18.47;8.03;;;;;;;10.00;30.53;100753.91;10066243;29;20558;-84
2022/05/04 08:18:40;;;;;;;17.00;8.27;;;;;;;9.82;31.16;100758.34;10072013;29;20226;-88
2022/05/04 08:23:42;;;;;;;13.53;7.90;;;;;;;10.35;30.06;100755.91;10085182;29;20195;-83
2022/05/04 08:28:45;;;;;;;14.93;7.73;;;;;;;10.42;30.40;100748.34;10080894;29;20500;-84
2022/05/04 08:33:48;;;;;;;15.80;8.40;;;;;;;10.17;30.78;100740.44;10073026;29;20668;-85
2022/05/04 08:38:50;;;;;;;13.27;8.17;;;;;;;9.69;31.07;100736.88;10088443;29;20193;-84
2022/05/04 08:43:53;;;;;;;12.37;7.50;;;;;;;11.26;28.58;100736.06;10072775;29;20218;-87
2022/05/04 08:48:55;;;;;;;16.07;8.20;;;;;;;11.28;29.67;100739.34;10076312;29;20211;-83
2022/05/04 08:53:57;;;;;;;13.90;8.43;;;;;;;9.45;31.10;100742.81;10087853;29;20242;-84
2022/05/04 08:59:03;;;;;;;15.97;8.73;;;;;;;10.57;30.90;100740.06;10104551;29;20194;-84
2022/05/04 09:04:06;;;;;;;15.73;8.17;;;;;;;10.76;29.83;100740.84;10070856;29;20207;-82
2022/05/04 09:09:10;;;;;;;14.43;8.80;;;;;;;9.85;31.69;100740.53;10078702;29;20596;-82
2022/05/04 09:14:20;;;;;;;13.27;8.67;;;;;;;10.95;29.44;100733.47;10073690;29;20226;-82
2022/05/04 09:19:23;;;;;;;18.83;10.10;;;;;;;9.84;32.91;100738.03;10084610;29;20226;-85
2022/05/04 09:24:27;;;;;;;17.73;10.35;;;;;;;11.60;29.53;100733.38;10064572;29;20287;-84
2022/05/04 09:29:37;;;;;;;16.67;10.30;;;;;;;9.77;31.35;100739.56;10034712;29;20203;-83
2022/05/04 09:34:39;;;;;;;17.60;10.60;;;;;;;11.03;30.07;100726.69;10052794;29;20316;-84
2022/05/04 09:45:11;;;;;;;19.37;10.03;;;;;;;11.82;28.56;100729.63;10049504;29;20545;-87
2022/05/04 09:50:16;;;;;;;20.60;11.73;;;;;;;11.95;28.82;100728.19;10066093;29;20266;-84
2022/05/04 09:55:24;;;;;;;19.60;10.60;;;;;;;10.25;30.67;100737.38;10085513;29;20238;-83
2022/05/04 10:00:27;;;;;;;19.65;10.88;;;;;;;10.89;30.03;100732.97;10085256;29;20206;-83
2022/05/04 10:05:31;;;;;;;21.07;11.83;;;;;;;11.31;29.19;100730.03;10066386;29;20258;-84
2022/05/04 10:10:34;;;;;;;17.90;10.77;;;;;;;11.82;28.73;100719.03;10060912;29;20274;-84
2022/05/04 10:15:37;;;;;;;18.13;11.20;;;;;;;11.72;29.48;100713.16;10069658;29;20222;-85
2022/05/04 10:20:48;;;;;;;19.57;11.07;;;;;;;12.17;28.86;100720.75;10084952;29;20659;-85
2022/05/04 10:25:51;;;;;;;17.42;11.40;;;;;;;13.31;27.36;100707.69;10086672;29;20219;-86
2022/05/04 10:30:55;;;;;;;19.57;11.40;;;;;;;12.02;29.19;100705.44;10084950;29;20201;-84
2022/05/04 10:36:18;;;;;;;18.52;11.73;;;;;;;13.05;27.64;100711.53;10069123;29;20226;-87
2022/05/04 10:41:35;;;;;;;18.55;11.35;;;;;;;10.66;30.78;100715.78;10038406;29;20215;-83
2022/05/04 10:46:40;;;;;;;19.15;11.52;;;;;;;12.08;28.78;100711.63;10056348;29;20548;-84
2022/05/04 10:51:46;;;;;;;19.00;13.23;;;;;;;13.05;27.80;100705.81;10058234;29;20254;-84
2022/05/04 10:56:49;;;;;;;19.97;13.30;;;;;;;13.45;27.16;100702.88;10084649;29;20235;-84
2022/05/04 11:01:56;;;;;;;18.73;15.13;;;;;;;13.00;27.70;100697.56;10084229;29;20223;-88
2022/05/04 11:06:58;;;;;;;17.48;11.00;;;;;;;13.33;27.61;100696.63;10067971;29;20254;-83
2022/05/04 11:12:04;;;;;;;20.80;13.57;;;;;;;10.50;31.01;100706.50;10074003;29;20573;-82
2022/05/04 11:17:12;;;;;;;22.67;14.67;;;;;;;11.46;29.07;100700.53;10053370;29;20210;-82
2022/05/04 11:22:16;;;;;;;21.40;15.57;;;;;;;14.02;26.23;100691.78;10042981;29;20600;-83
2022/05/04 11:27:38;;;;;;;23.48;15.70;;;;;;;12.97;26.88;100698.34;10040370;29;20604;-85
2022/05/04 11:32:40;;;;;;;21.58;14.88;;;;;;;12.78;27.09;100691.66;10061403;29;20617;-84
2022/05/04 11:37:42;;;;;;;19.17;14.87;;;;;;;13.16;27.07;100683.81;10046196;29;20210;-82
2022/05/04 11:42:44;;;;;;;18.47;14.40;;;;;;;12.39;28.38;100690.38;10052338;29;20199;-84
2022/05/04 11:47:47;;;;;;;23.50;15.73;;;;;;;13.61;26.17;100676.78;10051940;29;20203;-87
2022/05/04 11:52:49;;;;;;;21.40;14.90;;;;;;;14.49;25.54;100672.75;10050475;29;20247;-88
2022/05/04 11:57:51;;;;;;;22.87;15.03;;;;;;;12.86;27.51;100670.47;10060276;29;20203;-84
2022/05/04 12:02:55;;;;;;;20.67;15.32;;;;;;;13.55;26.58;100649.75;10033088;29;20207;-81
2022/05/04 12:07:58;;;;;;;21.48;14.43;;;;;;;12.96;27.00;100657.44;10053982;29;20232;-85
2022/05/04 12:13:02;;;;;;;20.48;15.35;;;;;;;13.62;25.52;100638.31;10035289;29;20271;-84
2022/05/04 12:18:05;;;;;;;23.00;15.13;;;;;;;14.15;26.39;100644.31;10054241;29;20221;-82
2022/05/04 12:23:11;;;;;;;25.48;14.90;;;;;;;14.51;24.61;100639.53;10051258;29;20202;-84
2022/05/04 12:28:18;;;;;;;21.42;14.32;;;;;;;14.62;24.68;100628.06;10047673;29;20255;-83
2022/05/04 12:33:20;;;;;;;21.45;14.52;;;;;;;15.51;24.34;100637.50;10045519;29;20253;-83
2022/05/04 12:38:23;;;;;;;16.00;14.30;;;;;;;13.67;26.11;100639.97;10065194;29;20228;-84
2022/05/04 12:43:30;;;;;;;23.30;15.20;;;;;;;14.04;25.32;100631.16;10045186;29;20223;-83
2022/05/04 12:48:32;;;;;;;25.70;14.43;;;;;;;15.50;24.02;100620.66;10048430;29;20198;-83
2022/05/04 12:53:38;;;;;;;19.10;12.75;;;;;;;12.68;25.25;100629.38;10029172;29;20246;-82
2022/05/04 12:58:40;;;;;;;18.70;14.30;;;;;;;14.34;23.27;100623.06;10046972;29;20202;-83
2022/05/04 13:03:42;;;;;;;14.52;12.88;;;;;;;14.38;24.51;100618.13;10033792;29;20251;-84
2022/05/04 13:08:46;;;;;;;19.20;14.68;;;;;;;15.51;23.63;100608.75;10044242;29;20206;-84
2022/05/04 13:13:48;;;;;;;14.30;11.95;;;;;;;13.93;24.09;100605.31;10056205;29;20221;-84
2022/05/04 13:18:50;;;;;;;14.55;11.77;;;;;;;15.47;23.55;100598.47;10058532;29;20313;-83
2022/05/04 13:23:52;;;;;;;15.80;12.48;;;;;;;14.37;23.73;100593.53;10027879;29;20267;-85
2022/05/04 13:28:55;;;;;;;14.93;12.30;;;;;;;14.48;23.43;100593.63;10046093;29;20326;-83
2022/05/04 13:33:58;;;;;;;21.27;11.65;;;;;;;15.27;22.28;100581.69;10031597;29;20226;-82
2022/05/04 13:39:00;;;;;;;14.15;12.00;;;;;;;15.41;22.05;100596.03;10047045;29;20198;-87
2022/05/04 13:44:02;;;;;;;14.90;10.68;;;;;;;14.35;22.85;100584.53;10046993;29;20266;-84
2022/05/04 13:49:08;;;;;;;15.98;10.07;;;;;;;14.01;22.93;100586.91;10047255;29;20231;-83
2022/05/04 13:54:10;;;;;;;12.27;10.10;;;;;;;14.53;22.19;100579.66;10048270;29;20565;-87
2022/05/04 13:59:12;;;;;;;10.40;7.97;;;;;;;14.98;21.13;100566.53;10043949;29;20202;-83
2022/05/04 14:04:15;;;;;;;14.55;8.43;;;;;;;15.67;21.32;100562.28;10044351;29;20489;-83
2022/05/04 14:09:17;;;;;;;8.63;6.30;;;;;;;15.01;20.29;100571.44;10064896;29;20206;-83
2022/05/04 14:19:40;;;;;;;14.65;8.38;;;;;;;14.56;22.92;100566.53;10062855;29;20290;-83
2022/05/04 14:24:42;;;;;;;13.25;8.00;;;;;;;12.88;23.11;100570.69;10052472;29;20275;-85
2022/05/04 14:29:44;;;;;;;9.75;7.30;;;;;;;14.23;21.52;100562.78;10063512;29;20504;-82
2022/05/04 14:34:46;;;;;;;13.50;6.25;;;;;;;15.16;20.56;100563.66;10060911;29;20218;-82
2022/05/04 14:39:48;;;;;;;10.23;5.50;;;;;;;14.54;21.37;100560.38;10044696;29;20240;-81
2022/05/04 14:44:51;;;;;;;14.70;5.05;;;;;;;13.77;20.93;100564.66;10063956;29;20669;-81
2022/05/04 14:49:53;;;;;;;8.02;3.97;;;;;;;13.91;20.64;100564.75;10057204;29;20199;-82
2022/05/04 14:54:55;;;;;;;8.15;4.47;;;;;;;14.96;19.40;100551.75;10082329;29;20341;-82
2022/05/04 14:59:58;;;;;;;9.60;4.15;;;;;;;15.12;19.66;100562.03;10056292;29;20206;-84
2022/05/04 15:05:03;;;;;;;9.02;3.75;;;;;;;14.80;19.45;100554.22;10032840;29;20202;-84
2022/05/04 15:10:06;;;;;;;9.07;3.75;;;;;;;13.88;20.21;100559.81;10071393;29;20202;-85
2022/05/04 15:15:09;;;;;;;12.80;3.47;;;;;;;15.33;18.77;100548.44;10085961;29;20620;-83
2022/05/04 15:20:11;;;;;;;7.57;2.97;;;;;;;14.59;18.58;100551.38;10068374;29;20242;-83
2022/05/04 15:25:14;;;;;;;6.03;2.63;;;;;;;14.10;18.91;100549.25;10028960;29;20204;-82
2022/05/04 15:30:16;;;;;;;4.55;2.47;;;;;;;15.50;17.34;100551.66;10059698;29;20581;-88
2022/05/04 15:35:18;;;;;;;4.15;2.20;;;;;;;13.46;19.59;100555.50;10036659;29;20825;-85
2022/05/04 15:40:20;;;;;;;3.00;1.95;;;;;;;14.54;18.44;100552.59;10033423;29;20211;-88
2022/05/04 15:45:22;;;;;;;4.82;2.00;;;;;;;15.03;17.93;100548.91;10045240;29;20195;-80
2022/05/04 15:50:25;;;;;;;5.82;2.22;;;;;;;14.43;17.83;100546.00;10036838;29;20960;-81
2022/05/04 15:55:28;;;;;;;7.80;2.05;;;;;;;14.23;17.34;100554.16;10074634;29;20309;-84
2022/05/04 16:00:30;;;;;;;4.43;1.88;;;;;;;15.66;17.67;100544.22;10059776;29;20301;-86
2022/05/04 16:05:34;;;;;;;6.07;2.97;;;;;;;13.56;22.57;100554.78;10043330;29;20283;-80
2022/05/04 16:10:37;;;;;;;6.88;2.90;;;;;;;15.02;19.78;100543.53;10070552;29;20234;-78
2022/05/04 16:15:41;;;;;;;7.30;2.30;;;;;;;13.51;20.23;100546.53;10077610;29;20275;-87
2022/05/04 16:26:07;;;;;;;4.50;2.28;;;;;;;14.60;18.64;100545.22;10047839;29;20341;-86
2022/05/04 16:31:09;;;;;;;4.82;2.40;;;;;;;13.16;20.14;100552.06;10062825;29;20237;-91
2022/05/04 16:36:11;;;;;;;8.23;3.13;;;;;;;14.47;18.82;100540.31;10059149;29;20245;-90
2022/05/04 16:41:14;;;;;;;6.03;3.00;;;;;;;14.39;18.47;100538.59;10065191;29;20237;-88
2022/05/04 16:46:16;;;;;;;5.60;2.83;;;;;;;14.26;19.68;100547.63;10051062;29;20221;-83
2022/05/04 16:51:20;;;;;;;8.18;3.15;;;;;;;12.17;21.02;100558.56;10048592;29;20226;-86
2022/05/04 16:56:22;;;;;;;6.78;2.40;;;;;;;14.42;19.04;100549.28;10080833;29;20222;-89
2022/05/04 17:01:24;;;;;;;4.53;2.43;;;;;;;13.94;19.56;100552.47;10061109;29;20255;-87
2022/05/04 17:06:26;;;;;;;6.35;2.58;;;;;;;14.74;18.78;100549.34;10058947;29;20206;-90
2022/05/04 17:11:29;;;;;;;6.82;2.83;;;;;;;13.91;20.00;100554.09;10068976;29;20198;-90
2022/05/04 17:16:31;;;;;;;9.50;3.10;;;;;;;13.91;20.38;100548.38;10037212;29;20246;-88
2022/05/04 17:21:54;;;;;;;7.53;3.95;;;;;;;12.17;22.04;100575.72;10036001;29;20239;-87
2022/05/04 17:26:56;;;;;;;6.57;2.10;;;;;;;13.52;20.53;100564.56;10008814;29;20235;-88
2022/05/04 17:37:20;;;;;;;8.18;2.95;;;;;;;13.65;20.36;100569.53;10040691;29;20253;-86
2022/05/04 17:42:25;;;;;;;3.90;2.00;;;;;;;12.32;21.24;100575.88;10019124;29;20880;-86
2022/05/04 17:47:29;;;;;;;3.83;1.93;;;;;;;14.51;20.22;100570.63;10048780;29;20225;-87
2022/05/04 17:52:31;;;;;;;5.85;2.53;;;;;;;14.74;20.07;100575.16;10061151;29;20241;-82
2022/05/04 17:57:33;;;;;;;6.00;2.38;;;;;;;14.70;20.03;100580.91;10086891;29;20245;-85
2022/05/04 18:07:57;;;;;;;6.43;2.28;;;;;;;13.77;20.82;100588.41;10045158;29;20217;-81
2022/05/04 18:12:59;;;;;;;5.25;2.50;;;;;;;13.47;21.35;100588.69;10086316;29;20213;-81
2022/05/04 18:18:02;;;;;;;6.57;3.13;;;;;;;14.17;20.33;100590.22;10059681;29;20248;-86
2022/05/04 18:23:07;;;;;;;4.88;2.30;;;;;;;14.23;20.35;100614.41;10049878;29;20237;-83
2022/05/04 18:28:11;;;;;;;3.77;1.63;;;;;;;13.29;21.26;100614.38;10026001;29;20332;-84
2022/05/04 18:33:13;;;;;;;3.23;1.90;;;;;;;13.92;20.61;100613.09;10037508;29;20286;-83
2022/05/04 18:38:16;;;;;;;7.93;2.30;;;;;;;13.88;21.20;100618.00;10023182;29;20258;-82
2022/05/04 18:43:19;;;;;;;6.60;2.10;;;;;;;13.63;21.25;100628.47;10031007;29;20234;-83
2022/05/04 18:48:21;;;;;;;6.23;2.10;;;;;;;13.82;21.53;100636.78;10072899;29;20282;-82
2022/05/04 18:53:24;;;;;;;6.33;2.10;;;;;;;13.95;21.44;100643.03;10047374;29;20237;-83
2022/05/04 18:58:26;;;;;;;6.13;2.95;;;;;;;13.76;21.98;100646.97;10044859;29;20234;-84
2022/05/04 19:03:28;;;;;;;8.05;2.40;;;;;;;13.36;22.46;100653.69;10046343;29;20645;-82
2022/05/04 19:08:30;;;;;;;6.43;2.28;;;;;;;13.04;22.85;100658.34;10029411;29;20239;-84
2022/05/04 19:13:33;;;;;;;7.85;2.03;;;;;;;13.35;23.04;100656.97;10056289;29;20238;-81
2022/05/04 19:18:35;;;;;;;10.60;1.87;;;;;;;13.61;22.56;100662.44;10056764;29;20271;-81
2022/05/04 19:23:38;;;;;;;8.90;1.90;;;;;;;12.82;23.58;100681.03;10029918;29;20235;-83
2022/05/04 19:28:41;;;;;;;5.03;1.87;;;;;;;13.04;23.44;100686.97;10034096;29;20242;-84
2022/05/04 19:33:43;;;;;;;3.70;2.00;;;;;;;12.18;24.18;100686.03;10016285;29;20251;-83
2022/05/04 19:38:46;;;;;;;12.02;1.95;;;;;;;12.36;24.17;100694.00;10031106;29;20255;-83
2022/05/04 19:43:49;;;;;;;9.23;1.90;;;;;;;12.74;24.24;100705.09;10036141;29;20636;-83
2022/05/04 19:48:52;;;;;;;7.60;2.20;;;;;;;12.58;24.42;100715.94;10051111;29;20206;-83
2022/05/04 19:53:54;;;;;;;3.50;1.70;;;;;;;11.91;25.46;100721.59;10032494;29;20207;-85
2022/05/04 19:58:57;;;;;;;3.88;2.00;;;;;;;12.00;25.09;100722.13;10025615;29;20613;-84
2022/05/04 20:03:59;;;;;;;5.13;1.83;;;;;;;11.90;26.16;100720.75;10049083;29;20520;-85
2022/05/04 20:09:03;;;;;;;6.60;1.50;;;;;;;11.70;25.74;100738.44;10042806;29;20206;-85
2022/05/04 20:14:05;;;;;;;6.47;2.10;;;;;;;11.41;26.24;100743.66;10073418;29;20214;-85
2022/05/04 20:19:08;;;;;;;3.40;1.80;;;;;;;11.47;26.16;100741.34;10061481;29;20246;-89
2022/05/04 20:24:11;;;;;;;5.13;2.17;;;;;;;11.83;25.64;100731.28;10096570;29;20203;-84
2022/05/04 20:29:13;;;;;;;5.83;2.10;;;;;;;11.49;25.88;100727.50;10073352;29;20203;-84
2022/05/04 20:34:16;;;;;;;3.60;2.10;;;;;;;11.31;25.84;100726.34;10075381;29;20619;-86
2022/05/04 20:39:18;;;;;;;6.13;2.50;;;;;;;11.27;26.07;100731.16;10071336;29;20262;-84
2022/05/04 20:44:20;;;;;;;4.47;2.07;;;;;;;11.01;27.00;100729.09;10048370;29;20207;-87
2022/05/04 20:49:26;;;;;;;8.80;2.17;;;;;;;11.10;26.17;100732.53;10037314;29;20259;-85
2022/05/04 20:54:30;;;;;;;6.90;2.20;;;;;;;11.09;26.79;100728.03;10035568;29;20263;-85
2022/05/04 20:59:32;;;;;;;4.53;2.00;;;;;;;10.88;27.02;100737.00;10034559;29;20199;-85
2022/05/04 21:04:36;;;;;;;3.90;2.10;;;;;;;10.81;26.82;100726.31;10040827;29;20206;-88
2022/05/04 21:09:39;;;;;;;3.73;2.70;;;;;;;10.70;26.71;100730.13;10083342;29;20198;-84
2022/05/04 21:14:41;;;;;;;3.67;2.30;;;;;;;10.59;27.42;100729.94;10056760;29;20267;-83
2022/05/04 21:19:44;;;;;;;4.00;2.17;;;;;;;10.82;26.76;100733.66;10074775;29;20242;-84
2022/05/04 21:24:50;;;;;;;4.87;2.60;;;;;;;10.61;27.70;100744.63;10037613;29;20202;-84
2022/05/04 21:29:52;;;;;;;5.00;2.43;;;;;;;10.49;27.58;100747.63;10033871;29;20202;-85
2022/05/04 21:34:55;;;;;;;6.50;2.40;;;;;;;10.66;27.42;100752.06;10048094;29;20685;-84
2022/05/04 21:39:58;;;;;;;4.93;2.50;;;;;;;10.44;27.85;100756.50;10056117;29;20219;-83
2022/05/04 21:45:00;;;;;;;14.07;3.30;;;;;;;10.49;27.74;100757.03;10083040;29;20207;-84
2022/05/04 21:50:03;;;;;;;7.43;3.40;;;;;;;10.40;27.75;100758.47;10075187;29;20206;-85
2022/05/04 21:55:06;;;;;;;8.60;3.07;;;;;;;10.50;28.05;100766.41;10071596;29;20226;-87
2022/05/04 22:00:14;;;;;;;6.87;2.97;;;;;;;10.01;28.33;100769.81;10073262;29;20221;-86
2022/05/04 22:05:16;;;;;;;7.47;3.93;;;;;;;10.12;28.67;100772.91;10083988;29;20258;-86
2022/05/04 22:10:19;;;;;;;8.03;3.50;;;;;;;10.18;28.65;100785.69;10080042;29;20205;-84
2022/05/04 22:15:21;;;;;;;6.57;3.20;;;;;;;10.01;29.24;100784.06;10102784;29;20218;-85
2022/05/04 22:20:23;;;;;;;5.90;3.27;;;;;;;9.77;29.26;100801.41;10086013;29;20233;-85
2022/05/04 22:25:26;;;;;;;7.50;3.77;;;;;;;9.71;29.17;100794.31;10086183;29;20480;-85
2022/05/04 22:30:29;;;;;;;5.33;3.33;;;;;;;9.70;29.61;100801.22;10071479;29;20663;-86
2022/05/04 22:35:32;;;;;;;7.80;3.17;;;;;;;9.40;30.08;100803.69;10070192;29;20222;-83
2022/05/04 22:40:34;;;;;;;11.50;4.00;;;;;;;9.37;29.96;100810.94;10081938;29;20205;-87
2022/05/04 22:45:36;;;;;;;9.30;3.87;;;;;;;9.42;30.05;100802.16;10056314;29;20202;-87
2022/05/04 22:50:39;;;;;;;11.93;4.37;;;;;;;9.14;30.52;100817.66;10086112;29;20563;-85
2022/05/04 22:55:42;;;;;;;8.77;3.53;;;;;;;8.93;30.77;100820.72;10088723;29;20289;-86
2022/05/04 23:00:45;;;;;;;4.43;3.27;;;;;;;8.45;32.01;100816.88;10088768;29;20234;-87
2022/05/04 23:05:47;;;;;;;11.33;3.60;;;;;;;9.26;30.12;100815.53;10086036;29;20266;-85
2022/05/04 23:10:49;;;;;;;10.67;4.27;;;;;;;9.58;30.06;100818.41;10072290;29;20607;-87
2022/05/04 23:16:03;;;;;;;5.60;3.50;;;;;;;9.16;30.22;100830.31;10071600;29;20627;-85
2022/05/04 23:21:06;;;;;;;8.17;3.30;;;;;;;9.40;30.24;100824.47;10089056;29;20230;-86
2022/05/04 23:26:09;;;;;;;6.57;3.20;;;;;;;9.62;30.37;100833.56;10070697;29;20230;-85
2022/05/04 23:31:11;;;;;;;6.87;2.73;;;;;;;9.69;29.53;100833.72;10089845;29;20194;-87
2022/05/04 23:41:35;;;;;;;8.00;3.67;;;;;;;9.81;29.99;100825.13;10090719;29;20210;-85
2022/05/04 23:46:38;;;;;;;7.10;3.80;;;;;;;9.71;29.97;100828.50;10015962;29;20273;-85
2022/05/04 23:51:41;;;;;;;9.70;3.10;;;;;;;9.34;30.34;100842.16;10013776;29;20196;-84
2022/05/04 23:56:43;;;;;;;6.53;3.30;;;;;;;9.72;29.57;100833.00;10013366;29;20227;-86
